createdAt,value
2022-08-25T00:00:26.380Z,1002.23
2022-08-25T00:01:26.441Z,1002.19
2022-08-25T00:02:26.592Z,1002.16
2022-08-25T00:03:26.632Z,1002.14
2022-08-25T00:04:26.690Z,1002.14
2022-08-25T00:05:27.746Z,1002.14
2022-08-25T00:06:26.814Z,1002.18
2022-08-25T00:07:26.886Z,1002.17
2022-08-25T00:08:26.983Z,1002.19
2022-08-25T00:09:27.017Z,1002.16
2022-08-25T00:10:27.098Z,1002.15
2022-08-25T00:11:27.151Z,1002.18
2022-08-25T00:12:27.232Z,1002.16
2022-08-25T00:13:27.312Z,1002.18
2022-08-25T00:14:27.367Z,1002.19
2022-08-25T00:15:27.456Z,1002.21
2022-08-25T00:16:27.506Z,1002.20
2022-08-25T00:17:27.561Z,1002.18
2022-08-25T00:18:27.664Z,1002.23
2022-08-25T00:19:27.710Z,1002.23
2022-08-25T00:20:27.800Z,1002.22
2022-08-25T00:21:27.858Z,1002.22
2022-08-25T00:22:27.933Z,1002.17
2022-08-25T00:23:28.004Z,1002.17
2022-08-25T00:24:28.083Z,1002.15
2022-08-25T00:25:28.134Z,1002.19
2022-08-25T00:26:28.231Z,1002.19
2022-08-25T00:27:28.281Z,1002.16
2022-08-25T00:28:28.400Z,1002.15
2022-08-25T00:29:28.445Z,1002.15
2022-08-25T00:30:28.522Z,1002.15
2022-08-25T00:31:37.821Z,1002.18
2022-08-25T00:32:28.692Z,1002.18
2022-08-25T00:33:28.746Z,1002.18
2022-08-25T00:34:28.823Z,1002.17
2022-08-25T00:35:28.873Z,1002.17
2022-08-25T00:36:28.942Z,1002.15
2022-08-25T00:37:29.017Z,1002.19
2022-08-25T00:38:29.081Z,1002.12
2022-08-25T00:39:29.159Z,1002.13
2022-08-25T00:40:29.276Z,1002.11
2022-08-25T00:41:29.321Z,1002.11
2022-08-25T00:42:29.371Z,1002.12
2022-08-25T00:43:29.459Z,1002.11
2022-08-25T00:44:29.519Z,1002.11
2022-08-25T00:45:29.594Z,1002.11
2022-08-25T00:46:29.697Z,1002.11
2022-08-25T00:47:29.722Z,1002.10
2022-08-25T00:48:29.820Z,1002.10
2022-08-25T00:49:29.918Z,1002.09
2022-08-25T00:50:30.007Z,1002.10
2022-08-25T00:51:30.083Z,1002.09
2022-08-25T00:52:30.132Z,1002.12
2022-08-25T00:53:30.225Z,1002.09
2022-08-25T00:54:30.270Z,1002.08
2022-08-25T00:55:30.346Z,1002.08
2022-08-25T00:56:30.403Z,1002.06
2022-08-25T00:57:34.736Z,1002.07
2022-08-25T00:58:30.565Z,1002.07
2022-08-25T00:59:30.646Z,1002.08
2022-08-25T01:00:30.699Z,1002.09
2022-08-25T01:01:30.823Z,1002.09
2022-08-25T01:02:30.882Z,1002.09
2022-08-25T01:03:33.141Z,1002.07
2022-08-25T01:04:30.980Z,1002.07
2022-08-25T01:05:31.059Z,1002.06
2022-08-25T01:06:31.112Z,1002.11
2022-08-25T01:07:31.191Z,1002.09
2022-08-25T01:08:32.170Z,1002.05
2022-08-25T01:09:31.342Z,1002.08
2022-08-25T01:10:31.396Z,1002.08
2022-08-25T01:11:31.474Z,1002.09
2022-08-25T01:12:31.527Z,1002.07
2022-08-25T01:13:31.627Z,1002.10
2022-08-25T01:14:31.675Z,1002.07
2022-08-25T01:15:31.816Z,1002.12
2022-08-25T01:16:31.825Z,1002.12
2022-08-25T01:17:31.927Z,1002.08
2022-08-25T01:18:31.970Z,1002.11
2022-08-25T01:19:32.051Z,1002.09
2022-08-25T01:20:32.133Z,1002.07
2022-08-25T01:21:32.212Z,1002.08
2022-08-25T01:22:32.278Z,1002.04
2022-08-25T01:23:32.370Z,1002.08
2022-08-25T01:24:32.415Z,1002.06
2022-08-25T01:25:32.493Z,1002.06
2022-08-25T01:26:32.543Z,1002.08
2022-08-25T01:27:32.619Z,1002.09
2022-08-25T01:28:32.732Z,1002.10
2022-08-25T01:29:32.813Z,1002.09
2022-08-25T01:30:32.859Z,1002.04
2022-08-25T01:31:33.031Z,1002.01
2022-08-25T01:32:33.021Z,1002.09
2022-08-25T01:33:33.131Z,1002.12
2022-08-25T01:34:33.172Z,1002.14
2022-08-25T01:35:33.250Z,1002.14
2022-08-25T01:36:33.300Z,1002.17
2022-08-25T01:37:33.379Z,1002.17
2022-08-25T01:38:33.444Z,1002.17
2022-08-25T01:39:33.529Z,1002.16
2022-08-25T01:40:33.579Z,1002.13
2022-08-25T01:41:33.657Z,1002.15
2022-08-25T01:42:33.707Z,1002.14
2022-08-25T01:43:33.838Z,1002.13
2022-08-25T01:44:33.888Z,1002.15
2022-08-25T01:45:33.967Z,1002.11
2022-08-25T01:46:34.089Z,1002.16
2022-08-25T01:47:34.099Z,1002.14
2022-08-25T01:48:34.169Z,1002.11
2022-08-25T01:49:34.251Z,1002.14
2022-08-25T01:50:34.310Z,1002.14
2022-08-25T01:51:34.401Z,1002.14
2022-08-25T01:52:34.452Z,1002.17
2022-08-25T01:53:34.569Z,1002.09
2022-08-25T01:54:34.644Z,1002.12
2022-08-25T01:55:34.714Z,1002.15
2022-08-25T01:56:34.764Z,1002.14
2022-08-25T01:57:34.844Z,1002.16
2022-08-25T01:58:34.910Z,1002.14
2022-08-25T01:59:34.989Z,1002.15
2022-08-25T02:00:35.042Z,1002.18
2022-08-25T02:01:35.165Z,1002.18
2022-08-25T02:02:35.263Z,1002.18
2022-08-25T02:03:35.318Z,1002.18
2022-08-25T02:04:35.369Z,1002.18
2022-08-25T02:05:35.441Z,1002.16
2022-08-25T02:06:35.530Z,1002.23
2022-08-25T02:07:35.615Z,1002.21
2022-08-25T02:08:35.679Z,1002.21
2022-08-25T02:09:35.758Z,1002.22
2022-08-25T02:10:35.830Z,1002.23
2022-08-25T02:11:35.909Z,1002.24
2022-08-25T02:12:35.963Z,1002.25
2022-08-25T02:13:36.065Z,1002.23
2022-08-25T02:14:36.112Z,1002.21
2022-08-25T02:15:36.187Z,1002.24
2022-08-25T02:16:36.327Z,1002.25
2022-08-25T02:17:36.377Z,1002.23
2022-08-25T02:18:36.442Z,1002.23
2022-08-25T02:19:36.522Z,1002.26
2022-08-25T02:20:36.575Z,1002.24
2022-08-25T02:21:36.680Z,1002.23
2022-08-25T02:22:36.725Z,1002.22
2022-08-25T02:23:36.818Z,1002.22
2022-08-25T02:24:36.864Z,1002.28
2022-08-25T02:25:36.942Z,1002.26
2022-08-25T02:26:36.994Z,1002.27
2022-08-25T02:27:37.098Z,1002.27
2022-08-25T02:28:37.181Z,1002.32
2022-08-25T02:29:37.259Z,1002.29
2022-08-25T02:30:37.383Z,1002.29
2022-08-25T02:31:37.423Z,1002.25
2022-08-25T02:32:37.473Z,1002.31
2022-08-25T02:33:37.570Z,1002.30
2022-08-25T02:34:37.618Z,1002.30
2022-08-25T02:35:37.698Z,1002.27
2022-08-25T02:36:37.751Z,1002.29
2022-08-25T02:37:37.829Z,1002.30
2022-08-25T02:38:39.747Z,1002.29
2022-08-25T02:39:37.988Z,1002.25
2022-08-25T02:40:38.047Z,1002.27
2022-08-25T02:41:38.125Z,1002.26
2022-08-25T02:42:38.180Z,1002.23
2022-08-25T02:43:38.269Z,1002.21
2022-08-25T02:44:38.335Z,1002.20
2022-08-25T02:45:38.474Z,1002.19
2022-08-25T02:46:38.503Z,1002.19
2022-08-25T02:47:38.574Z,1002.13
2022-08-25T02:48:38.628Z,1002.12
2022-08-25T02:49:38.811Z,1002.06
2022-08-25T02:50:38.780Z,1002.09
2022-08-25T02:51:38.901Z,1002.07
2022-08-25T02:52:38.934Z,1002.05
2022-08-25T02:53:39.015Z,1002.03
2022-08-25T02:54:39.109Z,1002.05
2022-08-25T02:55:39.186Z,1002.05
2022-08-25T02:56:39.236Z,1002.04
2022-08-25T02:57:39.316Z,1002.00
2022-08-25T02:58:39.368Z,1002.03
2022-08-25T02:59:39.802Z,1002.01
2022-08-25T03:00:39.526Z,1002.01
2022-08-25T03:01:39.649Z,1001.95
2022-08-25T03:02:39.728Z,1001.95
2022-08-25T03:03:39.939Z,1001.98
2022-08-25T03:04:40.046Z,1001.98
2022-08-25T03:05:39.928Z,1001.94
2022-08-25T03:06:39.980Z,1001.93
2022-08-25T03:07:40.078Z,1001.90
2022-08-25T03:08:40.133Z,1001.89
2022-08-25T03:09:40.231Z,1001.88
2022-08-25T03:10:40.279Z,1001.88
2022-08-25T03:11:40.358Z,1001.84
2022-08-25T03:12:40.437Z,1001.83
2022-08-25T03:13:40.515Z,1001.84
2022-08-25T03:14:40.588Z,1001.89
2022-08-25T03:15:40.642Z,1001.88
2022-08-25T03:16:40.728Z,1001.82
2022-08-25T03:17:40.937Z,1001.81
2022-08-25T03:18:40.864Z,1001.85
2022-08-25T03:19:40.959Z,1001.83
2022-08-25T03:20:41.006Z,1001.82
2022-08-25T03:21:41.080Z,1001.84
2022-08-25T03:22:41.131Z,1001.78
2022-08-25T03:23:41.209Z,1001.81
2022-08-25T03:24:41.272Z,1001.79
2022-08-25T03:25:41.357Z,1001.77
2022-08-25T03:26:41.403Z,1001.78
2022-08-25T03:27:41.473Z,1001.79
2022-08-25T03:28:41.563Z,1001.80
2022-08-25T03:29:41.678Z,1001.76
2022-08-25T03:30:41.721Z,1001.75
2022-08-25T03:31:41.851Z,1001.76
2022-08-25T03:32:41.854Z,1001.77
2022-08-25T03:33:41.930Z,1001.74
2022-08-25T03:34:41.996Z,1001.77
2022-08-25T03:35:42.075Z,1001.77
2022-08-25T03:36:42.128Z,1001.78
2022-08-25T03:37:42.212Z,1001.77
2022-08-25T03:38:42.260Z,1001.77
2022-08-25T03:39:42.363Z,1001.73
2022-08-25T03:40:42.406Z,1001.73
2022-08-25T03:41:42.483Z,1001.78
2022-08-25T03:42:44.970Z,1001.75
2022-08-25T03:43:42.615Z,1001.72
2022-08-25T03:44:42.704Z,1001.69
2022-08-25T03:45:42.818Z,1001.72
2022-08-25T03:46:42.822Z,1001.72
2022-08-25T03:47:42.918Z,1001.67
2022-08-25T03:48:42.970Z,1001.66
2022-08-25T03:49:43.055Z,1001.63
2022-08-25T03:50:43.114Z,1001.59
2022-08-25T03:51:43.195Z,1001.63
2022-08-25T03:52:43.250Z,1001.56
2022-08-25T03:53:43.331Z,1001.53
2022-08-25T03:54:43.398Z,1001.53
2022-08-25T03:55:43.450Z,1001.51
2022-08-25T03:56:43.505Z,1001.46
2022-08-25T03:57:43.583Z,1001.46
2022-08-25T03:58:43.628Z,1001.44
2022-08-25T03:59:43.751Z,1001.42
2022-08-25T04:00:43.871Z,1001.42
2022-08-25T04:01:43.889Z,1001.43
2022-08-25T04:02:44.011Z,1001.40
2022-08-25T04:03:44.040Z,1001.41
2022-08-25T04:04:44.114Z,1001.38
2022-08-25T04:05:44.171Z,1001.42
2022-08-25T04:06:44.223Z,1001.43
2022-08-25T04:07:44.326Z,1001.44
2022-08-25T04:08:44.378Z,1001.45
2022-08-25T04:09:44.480Z,1001.45
2022-08-25T04:10:44.530Z,1001.48
2022-08-25T04:11:44.599Z,1001.49
2022-08-25T04:12:44.679Z,1001.52
2022-08-25T04:13:44.760Z,1001.50
2022-08-25T04:14:44.824Z,1001.53
2022-08-25T04:15:44.910Z,1001.51
2022-08-25T04:16:45.022Z,1001.53
2022-08-25T04:17:45.049Z,1001.56
2022-08-25T04:18:45.100Z,1001.61
2022-08-25T04:19:45.213Z,1001.65
2022-08-25T04:20:46.927Z,1001.62
2022-08-25T04:21:45.331Z,1001.60
2022-08-25T04:22:45.414Z,1001.65
2022-08-25T04:23:45.494Z,1001.68
2022-08-25T04:24:45.559Z,1001.63
2022-08-25T04:25:46.283Z,1001.64
2022-08-25T04:26:45.690Z,1001.62
2022-08-25T04:27:45.765Z,1001.56
2022-08-25T04:28:45.816Z,1001.60
2022-08-25T04:29:45.916Z,1001.61
2022-08-25T04:30:50.235Z,1001.57
2022-08-25T04:31:46.060Z,1001.60
2022-08-25T04:32:46.097Z,1001.58
2022-08-25T04:33:46.164Z,1001.60
2022-08-25T04:34:46.231Z,1001.60
2022-08-25T04:35:46.291Z,1001.62
2022-08-25T04:36:46.346Z,1001.60
2022-08-25T04:37:46.457Z,1001.59
2022-08-25T04:38:46.505Z,1001.63
2022-08-25T04:39:46.693Z,1001.61
2022-08-25T04:40:46.670Z,1001.60
2022-08-25T04:41:46.747Z,1001.63
2022-08-25T04:42:48.075Z,1001.62
2022-08-25T04:43:46.897Z,1001.62
2022-08-25T04:44:46.957Z,1001.62
2022-08-25T04:45:47.089Z,1001.62
2022-08-25T04:46:47.102Z,1001.64
2022-08-25T04:47:49.648Z,1001.59
2022-08-25T04:48:47.234Z,1001.63
2022-08-25T04:49:47.336Z,1001.60
2022-08-25T04:50:47.372Z,1001.58
2022-08-25T04:51:47.452Z,1001.56
2022-08-25T04:52:47.554Z,1001.56
2022-08-25T04:53:47.604Z,1001.54
2022-08-25T04:54:47.705Z,1001.51
2022-08-25T04:55:47.734Z,1001.48
2022-08-25T04:56:47.826Z,1001.46
2022-08-25T04:57:47.905Z,1001.43
2022-08-25T04:58:48.014Z,1001.46
2022-08-25T04:59:48.083Z,1001.47
2022-08-25T05:00:48.185Z,1001.45
2022-08-25T05:01:50.191Z,1001.44
2022-08-25T05:02:48.337Z,1001.47
2022-08-25T05:03:48.432Z,1001.45
2022-08-25T05:04:48.531Z,1001.45
2022-08-25T05:05:48.561Z,1001.44
2022-08-25T05:06:48.642Z,1001.47
2022-08-25T05:07:48.692Z,1001.43
2022-08-25T05:08:48.773Z,1001.44
2022-08-25T05:09:48.846Z,1001.42
2022-08-25T05:10:48.930Z,1001.43
2022-08-25T05:11:48.980Z,1001.41
2022-08-25T05:12:49.053Z,1001.42
2022-08-25T05:13:51.273Z,1001.40
2022-08-25T05:14:49.207Z,1001.42
2022-08-25T05:15:49.256Z,1001.36
2022-08-25T05:16:49.422Z,1001.41
2022-08-25T05:17:53.840Z,1001.36
2022-08-25T05:18:49.508Z,1001.35
2022-08-25T05:19:49.592Z,1001.38
2022-08-25T05:20:49.676Z,1001.38
2022-08-25T05:21:49.727Z,1001.36
2022-08-25T05:22:49.819Z,1001.40
2022-08-25T05:23:49.877Z,1001.32
2022-08-25T05:24:49.962Z,1001.32
2022-08-25T05:25:50.011Z,1001.31
2022-08-25T05:26:50.092Z,1001.30
2022-08-25T05:27:50.184Z,1001.33
2022-08-25T05:28:50.274Z,1001.30
2022-08-25T05:29:50.378Z,1001.31
2022-08-25T05:30:50.409Z,1001.30
2022-08-25T05:31:51.048Z,1001.31
2022-08-25T05:32:50.591Z,1001.30
2022-08-25T05:33:50.639Z,1001.32
2022-08-25T05:34:50.755Z,1001.35
2022-08-25T05:35:50.980Z,1001.31
2022-08-25T05:36:50.887Z,1001.29
2022-08-25T05:37:50.970Z,1001.30
2022-08-25T05:38:51.040Z,1001.29
2022-08-25T05:39:51.183Z,1001.26
2022-08-25T05:40:51.211Z,1001.24
2022-08-25T05:41:51.300Z,1001.24
2022-08-25T05:42:51.378Z,1001.25
2022-08-25T05:43:52.211Z,1001.22
2022-08-25T05:44:51.544Z,1001.22
2022-08-25T05:45:51.628Z,1001.18
2022-08-25T05:46:51.696Z,1001.23
2022-08-25T05:47:51.784Z,1001.21
2022-08-25T05:48:51.877Z,1001.19
2022-08-25T05:49:51.982Z,1001.19
2022-08-25T05:50:52.059Z,1001.19
2022-08-25T05:51:52.109Z,1001.20
2022-08-25T05:52:52.189Z,1001.22
2022-08-25T05:53:52.237Z,1001.19
2022-08-25T05:54:52.365Z,1001.18
2022-08-25T05:55:52.376Z,1001.16
2022-08-25T05:56:52.459Z,1001.21
2022-08-25T05:57:52.529Z,1001.24
2022-08-25T05:58:52.612Z,1001.22
2022-08-25T05:59:52.674Z,1001.24
2022-08-25T06:00:52.772Z,1001.26
2022-08-25T06:01:52.786Z,1001.27
2022-08-25T06:02:52.869Z,1001.25
2022-08-25T06:03:52.997Z,1001.25
2022-08-25T06:04:53.017Z,1001.24
2022-08-25T06:05:53.065Z,1001.20
2022-08-25T06:06:53.146Z,1001.21
2022-08-25T06:07:53.220Z,1001.15
2022-08-25T06:08:53.316Z,1001.19
2022-08-25T06:09:53.384Z,1001.18
2022-08-25T06:10:53.462Z,1001.15
2022-08-25T06:11:55.149Z,1001.21
2022-08-25T06:12:53.593Z,1001.16
2022-08-25T06:13:53.643Z,1001.19
2022-08-25T06:14:53.741Z,1001.20
2022-08-25T06:15:53.825Z,1001.23
2022-08-25T06:16:53.884Z,1001.21
2022-08-25T06:17:56.743Z,1001.20
2022-08-25T06:18:54.047Z,1001.21
2022-08-25T06:19:54.108Z,1001.22
2022-08-25T06:20:54.186Z,1001.23
2022-08-25T06:21:54.259Z,1001.25
2022-08-25T06:22:54.340Z,1001.29
2022-08-25T06:23:54.388Z,1001.23
2022-08-25T06:24:54.491Z,1001.27
2022-08-25T06:25:54.544Z,1001.32
2022-08-25T06:26:54.637Z,1001.47
2022-08-25T06:27:54.721Z,1001.56
2022-08-25T06:28:54.795Z,1001.51
2022-08-25T06:29:55.068Z,1001.55
2022-08-25T06:30:54.999Z,1001.53
2022-08-25T06:31:55.124Z,1001.52
2022-08-25T06:32:55.128Z,1001.56
2022-08-25T06:33:55.214Z,1001.62
2022-08-25T06:34:55.298Z,1001.63
2022-08-25T06:35:55.340Z,1001.61
2022-08-25T06:36:55.413Z,1001.61
2022-08-25T06:37:55.495Z,1001.59
2022-08-25T06:38:55.592Z,1001.65
2022-08-25T06:39:55.766Z,1001.63
2022-08-25T06:40:55.743Z,1001.57
2022-08-25T06:41:56.710Z,1001.59
2022-08-25T06:42:55.918Z,1001.66
2022-08-25T06:44:04.999Z,1001.71
2022-08-25T06:44:56.128Z,1001.69
2022-08-25T06:45:56.168Z,1001.70
2022-08-25T06:46:56.323Z,1001.71
2022-08-25T06:47:56.329Z,1001.73
2022-08-25T06:48:56.401Z,1001.74
2022-08-25T06:49:56.508Z,1001.71
2022-08-25T06:50:56.563Z,1001.71
2022-08-25T06:51:56.649Z,1001.77
2022-08-25T06:52:56.725Z,1001.69
2022-08-25T06:53:56.811Z,1001.74
2022-08-25T06:54:56.911Z,1001.73
2022-08-25T06:55:56.961Z,1001.66
2022-08-25T06:56:57.035Z,1001.73
2022-08-25T06:57:57.112Z,1001.68
2022-08-25T06:58:57.208Z,1001.68
2022-08-25T06:59:57.336Z,1001.71
2022-08-25T07:00:57.482Z,1001.67
2022-08-25T07:01:57.542Z,1001.69
2022-08-25T07:02:57.581Z,1001.68
2022-08-25T07:03:57.860Z,1001.75
2022-08-25T07:04:57.786Z,1001.73
2022-08-25T07:05:57.838Z,1001.65
2022-08-25T07:06:57.910Z,1001.68
2022-08-25T07:07:57.998Z,1001.67
2022-08-25T07:08:58.073Z,1001.66
2022-08-25T07:09:58.170Z,1001.65
2022-08-25T07:10:58.224Z,1001.63
2022-08-25T07:11:58.279Z,1001.62
2022-08-25T07:12:58.356Z,1001.63
2022-08-25T07:13:58.441Z,1001.59
2022-08-25T07:15:17.063Z,1001.63
2022-08-25T07:15:58.655Z,1001.60
2022-08-25T07:16:58.670Z,1001.61
2022-08-25T07:17:58.728Z,1001.53
2022-08-25T07:18:58.816Z,1001.56
2022-08-25T07:19:58.918Z,1001.60
2022-08-25T07:20:58.993Z,1001.61
2022-08-25T07:21:59.061Z,1001.60
2022-08-25T07:22:59.139Z,1001.64
2022-08-25T07:23:59.223Z,1001.62
2022-08-25T07:24:59.310Z,1001.57
2022-08-25T07:25:59.367Z,1001.60
2022-08-25T07:26:59.451Z,1001.60
2022-08-25T07:27:59.493Z,1001.64
2022-08-25T07:28:59.571Z,1001.60
2022-08-25T07:30:01.254Z,1001.64
2022-08-25T07:30:59.782Z,1001.60
2022-08-25T07:31:59.834Z,1001.64
2022-08-25T07:33:00.757Z,1001.62
2022-08-25T07:34:00.018Z,1001.65
2022-08-25T07:35:00.095Z,1001.66
2022-08-25T07:36:00.176Z,1001.64
2022-08-25T07:37:00.244Z,1001.63
2022-08-25T07:38:00.330Z,1001.61
2022-08-25T07:39:00.411Z,1001.62
2022-08-25T07:40:00.567Z,1001.59
2022-08-25T07:41:00.622Z,1001.57
2022-08-25T07:42:00.665Z,1001.58
2022-08-25T07:43:00.805Z,1001.63
2022-08-25T07:44:00.820Z,1001.62
2022-08-25T07:45:00.931Z,1001.64
2022-08-25T07:46:01.039Z,1001.66
2022-08-25T07:47:01.142Z,1001.64
2022-08-25T07:48:01.165Z,1001.60
2022-08-25T07:49:01.241Z,1001.61
2022-08-25T07:50:01.336Z,1001.61
2022-08-25T07:51:05.210Z,1001.61
2022-08-25T07:52:04.531Z,1001.60
2022-08-25T07:53:01.584Z,1001.58
2022-08-25T07:54:01.671Z,1001.58
2022-08-25T07:55:01.799Z,1001.59
2022-08-25T07:57:01.916Z,1001.59
2022-08-25T07:58:02.059Z,1001.62
2022-08-25T07:59:02.105Z,1001.59
2022-08-25T08:00:02.200Z,1001.59
2022-08-25T08:01:02.295Z,1001.58
2022-08-25T08:02:02.444Z,1001.61
2022-08-25T08:03:03.896Z,1001.58
2022-08-25T08:04:03.655Z,1001.56
2022-08-25T08:05:02.593Z,1001.51
2022-08-25T08:06:02.717Z,1001.45
2022-08-25T08:07:02.764Z,1001.46
2022-08-25T08:08:02.936Z,1001.46
2022-08-25T08:09:02.922Z,1001.49
2022-08-25T08:10:37.082Z,1001.45
2022-08-25T08:11:05.155Z,1001.49
2022-08-25T08:12:03.181Z,1001.49
2022-08-25T08:13:03.394Z,1001.49
2022-08-25T08:14:03.358Z,1001.47
2022-08-25T08:15:03.441Z,1001.46
2022-08-25T08:16:03.677Z,1001.44
2022-08-25T08:17:03.630Z,1001.41
2022-08-25T08:18:03.723Z,1001.39
2022-08-25T08:19:03.800Z,1001.34
2022-08-25T08:20:03.874Z,1001.33
2022-08-25T08:21:03.972Z,1001.30
2022-08-25T08:22:04.053Z,1001.35
2022-08-25T08:23:04.351Z,1001.31
2022-08-25T08:24:10.744Z,1001.26
2022-08-25T08:25:04.264Z,1001.27
2022-08-25T08:26:04.363Z,1001.27
2022-08-25T08:27:04.425Z,1001.23
2022-08-25T08:28:04.503Z,1001.19
2022-08-25T08:29:04.563Z,1001.31
2022-08-25T08:30:04.660Z,1001.20
2022-08-25T08:31:04.847Z,1001.21
2022-08-25T08:32:04.827Z,1001.20
2022-08-25T08:33:12.866Z,1001.12
2022-08-25T08:34:04.982Z,1001.16
2022-08-25T08:35:05.023Z,1001.14
2022-08-25T08:36:05.501Z,1001.16
2022-08-25T08:37:05.181Z,1001.12
2022-08-25T08:38:12.448Z,1001.11
2022-08-25T08:39:05.354Z,1001.10
2022-08-25T08:40:05.466Z,1001.07
2022-08-25T08:41:05.530Z,1001.08
2022-08-25T08:42:11.933Z,1001.07
2022-08-25T08:43:05.861Z,1001.07
2022-08-25T08:45:05.808Z,1001.04
2022-08-25T08:46:05.949Z,1001.06
2022-08-25T08:47:08.889Z,1001.01
2022-08-25T08:48:06.684Z,1001.05
2022-08-25T08:49:06.123Z,1001.03
2022-08-25T08:50:06.194Z,1000.98
2022-08-25T08:51:06.727Z,1001.01
2022-08-25T08:52:06.373Z,1000.98
2022-08-25T08:53:06.546Z,1000.96
2022-08-25T08:54:06.535Z,1000.89
2022-08-25T08:55:06.636Z,1000.91
2022-08-25T08:56:06.726Z,1000.87
2022-08-25T08:57:06.767Z,1000.91
2022-08-25T08:58:07.091Z,1000.94
2022-08-25T08:59:06.941Z,1000.92
2022-08-25T09:00:07.036Z,1000.89
2022-08-25T09:01:07.136Z,1000.86
2022-08-25T09:02:07.268Z,1000.86
2022-08-25T09:03:07.307Z,1000.89
2022-08-25T09:04:07.386Z,1000.90
2022-08-25T09:05:07.458Z,1000.89
2022-08-25T09:06:07.599Z,1000.90
2022-08-25T09:07:07.641Z,1000.93
2022-08-25T09:08:08.003Z,1000.94
2022-08-25T09:09:07.806Z,1000.86
2022-08-25T09:10:07.894Z,1000.81
2022-08-25T09:11:10.207Z,1000.85
2022-08-25T09:12:08.564Z,1000.79
2022-08-25T09:13:12.245Z,1000.79
2022-08-25T09:14:08.183Z,1000.79
2022-08-25T09:15:12.927Z,1000.76
2022-08-25T09:16:08.388Z,1000.77
2022-08-25T09:17:08.429Z,1000.81
2022-08-25T09:18:08.682Z,1000.79
2022-08-25T09:19:08.620Z,1000.83
2022-08-25T09:20:18.554Z,1000.80
2022-08-25T09:21:08.801Z,1000.83
2022-08-25T09:22:33.928Z,1000.82
2022-08-25T09:23:08.930Z,1000.79
2022-08-25T09:24:08.983Z,1000.75
2022-08-25T09:25:09.160Z,1000.82
2022-08-25T09:26:09.180Z,1000.80
2022-08-25T09:27:09.263Z,1000.78
2022-08-25T09:28:09.352Z,1000.75
2022-08-25T09:29:16.343Z,1000.75
2022-08-25T09:30:10.167Z,1000.78
2022-08-25T09:31:09.675Z,1000.75
2022-08-25T09:32:09.634Z,1000.75
2022-08-25T09:33:09.712Z,1000.70
2022-08-25T09:34:09.804Z,1000.68
2022-08-25T09:35:09.914Z,1000.67
2022-08-25T09:36:10.025Z,1000.67
2022-08-25T09:37:10.096Z,1000.63
2022-08-25T09:38:10.184Z,1000.62
2022-08-25T09:39:10.257Z,1000.66
2022-08-25T09:40:10.366Z,1000.68
2022-08-25T09:41:10.455Z,1000.60
2022-08-25T09:42:10.498Z,1000.62
2022-08-25T09:43:10.591Z,1000.66
2022-08-25T09:44:10.677Z,1000.67
2022-08-25T09:45:10.751Z,1000.65
2022-08-25T09:46:10.878Z,1000.61
2022-08-25T09:47:10.900Z,1000.68
2022-08-25T09:48:10.990Z,1000.67
2022-08-25T09:49:11.065Z,1000.68
2022-08-25T09:50:11.145Z,1000.64
2022-08-25T09:51:11.282Z,1000.65
2022-08-25T09:52:11.330Z,1000.62
2022-08-25T09:53:17.319Z,1000.68
2022-08-25T09:54:11.503Z,1000.57
2022-08-25T09:55:13.178Z,1000.59
2022-08-25T09:56:11.676Z,1000.58
2022-08-25T09:57:11.760Z,1000.55
2022-08-25T09:58:11.812Z,1000.56
2022-08-25T09:59:15.660Z,1000.59
2022-08-25T10:00:11.949Z,1000.61
2022-08-25T10:01:13.830Z,1000.59
2022-08-25T10:02:12.097Z,1000.54
2022-08-25T10:03:12.390Z,1000.56
2022-08-25T10:04:18.887Z,1000.52
2022-08-25T10:05:12.354Z,1000.56
2022-08-25T10:06:13.217Z,1000.60
2022-08-25T10:07:12.490Z,1000.52
2022-08-25T10:08:14.538Z,1000.65
2022-08-25T10:09:12.615Z,1000.55
2022-08-25T10:10:12.729Z,1000.53
2022-08-25T10:11:12.778Z,1000.46
2022-08-25T10:12:12.906Z,1000.46
2022-08-25T10:13:12.943Z,1000.45
2022-08-25T10:14:13.013Z,1000.42
2022-08-25T10:15:13.116Z,1000.43
2022-08-25T10:16:18.062Z,1000.38
2022-08-25T10:17:13.335Z,1000.39
2022-08-25T10:18:13.375Z,1000.42
2022-08-25T10:19:13.478Z,1000.39
2022-08-25T10:20:13.561Z,1000.40
2022-08-25T10:21:13.637Z,1000.36
2022-08-25T10:22:13.701Z,1000.36
2022-08-25T10:23:13.779Z,1000.33
2022-08-25T10:24:13.830Z,1000.33
2022-08-25T10:25:13.942Z,1000.35
2022-08-25T10:26:14.050Z,1000.38
2022-08-25T10:27:14.136Z,1000.26
2022-08-25T10:28:14.178Z,1000.32
2022-08-25T10:29:14.289Z,1000.25
2022-08-25T10:30:14.390Z,1000.29
2022-08-25T10:31:14.533Z,1000.20
2022-08-25T10:32:14.544Z,1000.24
2022-08-25T10:33:14.616Z,1000.22
2022-08-25T10:34:14.690Z,1000.22
2022-08-25T10:35:14.764Z,1000.15
2022-08-25T10:36:14.847Z,1000.16
2022-08-25T10:37:15.305Z,1000.19
2022-08-25T10:38:21.793Z,1000.16
2022-08-25T10:39:34.308Z,1000.20
2022-08-25T10:40:16.422Z,1000.16
2022-08-25T10:41:15.232Z,1000.13
2022-08-25T10:42:15.333Z,1000.10
2022-08-25T10:43:15.402Z,1000.06
2022-08-25T10:44:15.455Z,1000.06
2022-08-25T10:45:21.657Z,1000.07
2022-08-25T10:46:15.617Z,1000.06
2022-08-25T10:47:15.684Z,1000.06
2022-08-25T10:48:15.730Z,1000.07
2022-08-25T10:49:15.821Z,999.99
2022-08-25T10:50:15.894Z,999.95
2022-08-25T10:51:21.438Z,999.99
2022-08-25T10:52:16.097Z,999.94
2022-08-25T10:53:16.923Z,999.92
2022-08-25T10:54:16.222Z,999.95
2022-08-25T10:55:16.329Z,999.91
2022-08-25T10:56:16.405Z,999.88
2022-08-25T10:57:16.520Z,999.84
2022-08-25T10:58:16.555Z,999.84
2022-08-25T10:59:16.666Z,999.89
2022-08-25T11:00:16.742Z,999.85
2022-08-25T11:01:16.882Z,999.75
2022-08-25T11:02:16.911Z,999.72
2022-08-25T11:03:16.980Z,999.76
2022-08-25T11:04:17.051Z,999.82
2022-08-25T11:05:17.149Z,999.82
2022-08-25T11:06:17.220Z,999.76
2022-08-25T11:07:17.302Z,999.76
2022-08-25T11:08:17.377Z,999.78
2022-08-25T11:09:17.458Z,999.74
2022-08-25T11:10:17.531Z,999.68
2022-08-25T11:11:17.632Z,999.76
2022-08-25T11:12:17.722Z,999.73
2022-08-25T11:13:17.816Z,999.71
2022-08-25T11:14:17.884Z,999.74
2022-08-25T11:15:17.993Z,999.73
2022-08-25T11:16:19.255Z,999.68
2022-08-25T11:17:18.235Z,999.71
2022-08-25T11:18:18.210Z,999.71
2022-08-25T11:19:18.307Z,999.65
2022-08-25T11:20:19.980Z,999.62
2022-08-25T11:21:18.469Z,999.64
2022-08-25T11:22:19.313Z,999.59
2022-08-25T11:23:18.640Z,999.58
2022-08-25T11:24:18.703Z,999.58
2022-08-25T11:25:18.788Z,999.57
2022-08-25T11:26:18.857Z,999.61
2022-08-25T11:27:18.976Z,999.64
2022-08-25T11:28:19.035Z,999.65
2022-08-25T11:29:19.126Z,999.65
2022-08-25T11:30:19.193Z,999.64
2022-08-25T11:31:19.380Z,999.66
2022-08-25T11:32:19.378Z,999.60
2022-08-25T11:33:19.719Z,999.59
2022-08-25T11:34:19.789Z,999.60
2022-08-25T11:35:19.592Z,999.58
2022-08-25T11:36:19.667Z,999.53
2022-08-25T11:37:19.763Z,999.61
2022-08-25T11:38:19.801Z,999.59
2022-08-25T11:39:19.886Z,999.60
2022-08-25T11:40:20.032Z,999.53
2022-08-25T11:41:20.053Z,999.49
2022-08-25T11:42:20.149Z,999.49
2022-08-25T11:43:20.219Z,999.54
2022-08-25T11:44:20.308Z,999.47
2022-08-25T11:45:20.376Z,999.48
2022-08-25T11:46:20.526Z,999.43
2022-08-25T11:47:21.502Z,999.42
2022-08-25T11:48:20.614Z,999.45
2022-08-25T11:49:21.795Z,999.46
2022-08-25T11:50:20.783Z,999.43
2022-08-25T11:51:20.893Z,999.44
2022-08-25T11:52:20.974Z,999.49
2022-08-25T11:53:26.746Z,999.48
2022-08-25T11:54:21.107Z,999.42
2022-08-25T11:55:23.145Z,999.40
2022-08-25T11:56:21.263Z,999.38
2022-08-25T11:57:21.350Z,999.38
2022-08-25T11:58:21.389Z,999.39
2022-08-25T11:59:21.502Z,999.38
2022-08-25T12:00:21.575Z,999.38
2022-08-25T12:01:21.647Z,999.34
2022-08-25T12:02:21.751Z,999.30
2022-08-25T12:03:21.837Z,999.27
2022-08-25T12:04:21.948Z,999.26
2022-08-25T12:05:22.165Z,999.31
2022-08-25T12:06:22.058Z,999.24
2022-08-25T12:07:22.190Z,999.25
2022-08-25T12:08:22.197Z,999.18
2022-08-25T12:09:22.301Z,999.22
2022-08-25T12:10:22.690Z,999.23
2022-08-25T12:11:22.472Z,999.21